createdAt,value
2023-01-06T00:01:09.770Z,71.54
2023-01-06T00:03:12.099Z,71.71
2023-01-06T00:05:14.999Z,71.55
2023-01-06T00:07:17.332Z,71.50
2023-01-06T00:09:19.575Z,71.41
2023-01-06T00:11:22.318Z,70.84
2023-01-06T00:13:24.613Z,71.82
2023-01-06T00:15:26.899Z,72.54
2023-01-06T00:17:29.257Z,73.34
2023-01-06T00:19:31.536Z,74.44
2023-01-06T00:21:33.752Z,75.55
2023-01-06T00:23:36.860Z,75.91
2023-01-06T00:25:39.089Z,76.14
2023-01-06T00:27:41.471Z,76.26
2023-01-06T00:29:43.830Z,76.29
2023-01-06T00:31:46.233Z,76.16
2023-01-06T00:33:48.495Z,76.20
2023-01-06T00:35:51.220Z,76.09
2023-01-06T00:37:53.573Z,76.78
2023-01-06T00:39:55.910Z,76.61
2023-01-06T00:42:01.275Z,77.02
2023-01-06T00:44:03.789Z,76.98
2023-01-06T00:46:06.127Z,77.36
2023-01-06T00:48:08.527Z,77.68
2023-01-06T00:50:11.239Z,78.96
2023-01-06T00:52:13.691Z,78.76
2023-01-06T00:54:16.396Z,79.85
2023-01-06T00:56:18.651Z,79.86
2023-01-06T00:58:20.889Z,80.95
2023-01-06T01:00:23.292Z,80.98
2023-01-06T01:02:25.773Z,82.82
2023-01-06T01:04:29.481Z,83.37
2023-01-06T01:06:31.836Z,83.34
2023-01-06T01:08:34.671Z,84.32
2023-01-06T01:10:37.007Z,84.62
2023-01-06T01:12:39.315Z,85.09
2023-01-06T01:14:47.713Z,85.70
2023-01-06T01:16:50.069Z,85.75
2023-01-06T01:18:52.493Z,86.17
2023-01-06T01:20:54.713Z,86.49
2023-01-06T01:22:57.032Z,86.26
2023-01-06T01:24:59.215Z,86.71
2023-01-06T01:27:01.531Z,86.36
2023-01-06T01:29:04.548Z,86.12
2023-01-06T01:31:06.975Z,86.13
2023-01-06T01:33:09.367Z,86.62
2023-01-06T01:35:11.758Z,87.43
2023-01-06T01:37:14.304Z,87.04
2023-01-06T01:39:18.976Z,87.30
2023-01-06T01:41:23.322Z,87.56
2023-01-06T01:43:26.322Z,87.53
2023-01-06T01:45:30.228Z,87.44
2023-01-06T01:47:37.218Z,87.49
2023-01-06T01:49:43.861Z,88.20
2023-01-06T01:51:48.566Z,88.62
2023-01-06T01:53:54.434Z,88.16
2023-01-06T01:56:00.982Z,87.76
2023-01-06T01:58:10.457Z,86.82
2023-01-06T02:00:13.214Z,85.27
2023-01-06T02:02:17.396Z,84.68
2023-01-06T02:04:22.983Z,82.03
2023-01-06T02:06:27.178Z,79.38
2023-01-06T02:08:32.878Z,78.27
2023-01-06T02:10:35.097Z,77.98
2023-01-06T02:12:37.586Z,77.41
2023-01-06T02:14:39.877Z,77.10
2023-01-06T02:16:48.281Z,74.96
2023-01-06T02:18:58.364Z,74.18
2023-01-06T02:21:01.375Z,74.25
2023-01-06T02:23:08.063Z,74.30
2023-01-06T02:25:11.974Z,72.79
2023-01-06T02:27:17.685Z,73.03
2023-01-06T02:29:30.896Z,72.49
2023-01-06T02:31:36.598Z,72.35
2023-01-06T02:33:44.624Z,72.68
2023-01-06T02:35:50.317Z,72.23
2023-01-06T02:37:58.677Z,71.99
2023-01-06T02:40:03.675Z,71.54
2023-01-06T02:42:17.119Z,71.67
2023-01-06T02:44:26.847Z,70.38
2023-01-06T02:46:32.250Z,70.71
2023-01-06T02:48:40.786Z,69.63
2023-01-06T02:50:46.593Z,70.32
2023-01-06T02:52:53.317Z,70.47
2023-01-06T02:55:04.550Z,70.19
2023-01-06T02:57:15.484Z,70.68
2023-01-06T02:59:22.858Z,70.76
2023-01-06T03:01:32.859Z,70.24
2023-01-06T03:03:38.561Z,69.96
2023-01-06T03:05:44.851Z,69.85
2023-01-06T03:07:48.760Z,70.63
2023-01-06T03:09:55.825Z,70.71
2023-01-06T03:12:01.198Z,70.76
2023-01-06T03:14:10.575Z,70.26
2023-01-06T03:16:13.392Z,70.07
2023-01-06T03:18:15.716Z,69.92
2023-01-06T03:20:19.055Z,69.77
2023-01-06T03:22:22.336Z,70.38
2023-01-06T03:24:24.656Z,70.61
2023-01-06T03:26:27.817Z,69.78
2023-01-06T03:28:29.993Z,70.02
2023-01-06T03:30:43.687Z,70.40
2023-01-06T03:32:55.147Z,70.30
2023-01-06T03:34:59.366Z,70.42
2023-01-06T03:37:05.951Z,70.40
2023-01-06T03:39:12.226Z,70.29
2023-01-06T03:41:48.685Z,70.70
2023-01-06T03:43:57.219Z,70.15
2023-01-06T03:46:02.902Z,69.90
2023-01-06T03:48:05.783Z,69.88
2023-01-06T03:50:18.386Z,70.28
2023-01-06T03:52:27.220Z,70.04
2023-01-06T03:54:35.732Z,70.39
2023-01-06T03:56:46.974Z,69.69
2023-01-06T03:58:54.737Z,69.68
2023-01-06T04:00:59.192Z,69.90
2023-01-06T04:03:02.634Z,70.04
2023-01-06T04:05:07.755Z,69.96
2023-01-06T04:07:10.021Z,70.17
2023-01-06T04:09:12.458Z,69.64
2023-01-06T04:11:17.859Z,69.71
2023-01-06T04:13:20.003Z,70.09
2023-01-06T04:15:24.669Z,69.53
2023-01-06T04:17:26.816Z,69.20
2023-01-06T04:19:29.050Z,68.38
2023-01-06T04:21:31.309Z,68.56
2023-01-06T04:23:33.654Z,68.47
2023-01-06T04:25:35.879Z,69.02
2023-01-06T04:27:38.159Z,68.68
2023-01-06T04:29:41.120Z,68.95
2023-01-06T04:31:44.037Z,68.85
2023-01-06T04:33:46.304Z,69.23
2023-01-06T04:35:48.575Z,70.02
2023-01-06T04:37:50.936Z,69.47
2023-01-06T04:39:53.134Z,69.20
2023-01-06T04:41:55.360Z,69.92
2023-01-06T04:43:58.247Z,70.01
2023-01-06T04:46:00.716Z,69.29
2023-01-06T04:48:02.976Z,69.73
2023-01-06T04:50:05.877Z,69.81
2023-01-06T04:52:09.303Z,69.83
2023-01-06T04:54:11.577Z,69.53
2023-01-06T04:56:14.259Z,69.25
2023-01-06T04:58:16.539Z,69.12
2023-01-06T05:00:19.437Z,69.01
2023-01-06T05:02:21.763Z,68.78
2023-01-06T05:04:23.918Z,69.30
2023-01-06T05:06:26.148Z,69.73
2023-01-06T05:08:28.737Z,70.21
2023-01-06T05:10:30.938Z,70.46
2023-01-06T05:12:33.516Z,70.18
2023-01-06T05:14:35.780Z,70.62
2023-01-06T05:16:38.784Z,70.68
2023-01-06T05:18:40.984Z,70.94
2023-01-06T05:20:43.197Z,70.41
2023-01-06T05:22:45.380Z,70.63
2023-01-06T05:24:47.648Z,71.69
2023-01-06T05:26:49.919Z,70.82
2023-01-06T05:28:52.407Z,71.14
2023-01-06T05:31:00.628Z,71.20
2023-01-06T05:33:02.834Z,71.15
2023-01-06T05:35:05.388Z,70.87
2023-01-06T05:37:07.631Z,71.30
2023-01-06T05:39:09.963Z,70.60
2023-01-06T05:41:12.575Z,70.49
2023-01-06T05:43:14.775Z,70.70
2023-01-06T05:45:17.020Z,70.33
2023-01-06T05:47:19.206Z,70.60
2023-01-06T05:49:22.231Z,70.73
2023-01-06T05:51:24.435Z,70.67
2023-01-06T05:53:26.711Z,70.71
2023-01-06T05:55:28.998Z,69.99
2023-01-06T05:57:33.911Z,71.10
2023-01-06T05:59:36.154Z,70.38
2023-01-06T06:01:38.454Z,70.57
2023-01-06T06:03:40.740Z,70.55
2023-01-06T06:05:42.995Z,71.17
2023-01-06T06:07:45.342Z,71.07
2023-01-06T06:09:47.576Z,70.68
2023-01-06T06:11:52.071Z,70.38
2023-01-06T06:13:56.417Z,70.03
2023-01-06T06:16:05.253Z,70.84
2023-01-06T06:18:07.599Z,70.75
2023-01-06T06:20:10.264Z,70.53
2023-01-06T06:22:12.822Z,70.51
2023-01-06T06:24:15.115Z,70.20
2023-01-06T06:26:17.514Z,70.51
2023-01-06T06:28:19.718Z,69.92
2023-01-06T06:30:21.898Z,70.34
2023-01-06T06:32:24.117Z,70.47
2023-01-06T06:34:26.347Z,70.19
2023-01-06T06:36:29.051Z,70.84
2023-01-06T06:38:31.360Z,70.74
2023-01-06T06:40:33.521Z,70.25
2023-01-06T06:42:35.837Z,70.40
2023-01-06T06:44:37.974Z,70.03
2023-01-06T06:46:40.135Z,70.18
2023-01-06T06:48:42.517Z,71.04
2023-01-06T06:50:44.763Z,70.53
2023-01-06T06:52:47.215Z,70.56
2023-01-06T06:54:49.428Z,70.71
2023-01-06T06:56:51.833Z,70.54
2023-01-06T06:58:54.078Z,69.94
2023-01-06T07:00:56.256Z,69.87
2023-01-06T07:02:58.467Z,70.14
2023-01-06T07:05:00.734Z,70.16
2023-01-06T07:07:03.081Z,70.75
2023-01-06T07:09:05.758Z,70.81
2023-01-06T07:11:07.877Z,71.09
2023-01-06T07:13:10.385Z,70.54
2023-01-06T07:15:12.843Z,71.51
2023-01-06T07:17:15.037Z,71.56
2023-01-06T07:19:17.396Z,70.91
2023-01-06T07:21:20.051Z,71.29
2023-01-06T07:23:23.491Z,71.15
2023-01-06T07:25:25.983Z,71.54
2023-01-06T07:27:28.196Z,71.35
2023-01-06T07:29:30.552Z,71.26
2023-01-06T07:31:32.769Z,71.42
2023-01-06T07:33:34.986Z,71.86
2023-01-06T07:35:37.226Z,71.85
2023-01-06T07:37:39.428Z,71.50
2023-01-06T07:39:41.815Z,71.67
2023-01-06T07:41:44.079Z,72.59
2023-01-06T07:43:46.364Z,71.90
2023-01-06T07:45:49.254Z,72.59
2023-01-06T07:47:51.564Z,72.35
2023-01-06T07:49:53.764Z,72.50
2023-01-06T07:51:56.644Z,71.55
2023-01-06T07:53:58.967Z,72.58
2023-01-06T07:56:01.205Z,71.94
2023-01-06T07:58:06.027Z,72.14
2023-01-06T08:00:09.318Z,72.50
2023-01-06T08:02:14.006Z,72.31
2023-01-06T08:04:16.363Z,73.01
2023-01-06T08:06:18.796Z,72.25
2023-01-06T08:08:21.138Z,73.00
2023-01-06T08:10:23.400Z,72.55
2023-01-06T08:12:25.597Z,72.65
2023-01-06T08:14:27.822Z,72.73
2023-01-06T08:16:30.235Z,72.79
2023-01-06T08:18:32.559Z,73.09
2023-01-06T08:20:35.054Z,72.98
2023-01-06T08:22:37.298Z,73.00
2023-01-06T08:24:39.712Z,73.06
2023-01-06T08:26:43.429Z,72.82
2023-01-06T08:28:46.472Z,72.94
2023-01-06T08:30:49.346Z,72.59
2023-01-06T08:32:51.607Z,72.57
2023-01-06T08:34:53.734Z,72.34
2023-01-06T08:36:55.941Z,72.03
2023-01-06T08:38:58.455Z,71.68
2023-01-06T08:41:02.072Z,72.14
2023-01-06T08:43:04.361Z,72.04
2023-01-06T08:45:08.159Z,71.59
2023-01-06T08:47:10.429Z,72.25
2023-01-06T08:49:12.653Z,72.00
2023-01-06T08:51:19.179Z,71.23
2023-01-06T08:53:21.539Z,71.38
2023-01-06T08:55:23.904Z,71.69
2023-01-06T08:57:26.488Z,70.88
2023-01-06T08:59:28.753Z,70.27
2023-01-06T09:01:34.199Z,70.05
2023-01-06T09:03:36.652Z,69.80
2023-01-06T09:05:38.878Z,69.77
2023-01-06T09:07:41.101Z,70.25
2023-01-06T09:09:43.314Z,70.25
2023-01-06T09:11:46.855Z,70.13
2023-01-06T09:13:51.082Z,69.75
2023-01-06T09:15:57.893Z,69.56
2023-01-06T09:18:00.147Z,69.54
2023-01-06T09:20:02.729Z,69.76
2023-01-06T09:22:05.176Z,69.89
2023-01-06T09:24:07.594Z,69.91
2023-01-06T09:26:10.213Z,69.78
2023-01-06T09:28:12.395Z,69.34
2023-01-06T09:30:14.615Z,69.60
2023-01-06T09:32:17.436Z,69.61
2023-01-06T09:34:19.771Z,69.28
2023-01-06T09:36:22.640Z,68.90
2023-01-06T09:38:25.038Z,69.05
2023-01-06T09:40:40.753Z,68.76
2023-01-06T09:42:49.079Z,68.39
2023-01-06T09:44:52.096Z,68.44
2023-01-06T09:46:54.757Z,68.53
2023-01-06T09:49:03.271Z,68.68
2023-01-06T09:51:07.757Z,68.07
2023-01-06T09:53:14.417Z,68.47
2023-01-06T09:55:24.079Z,68.43
2023-01-06T09:57:33.329Z,68.26
2023-01-06T09:59:46.876Z,68.55
2023-01-06T10:01:51.595Z,68.13
2023-01-06T10:03:54.000Z,68.37
2023-01-06T10:06:06.678Z,68.45
2023-01-06T10:08:18.476Z,68.11
2023-01-06T10:10:22.417Z,68.07
2023-01-06T10:12:28.227Z,67.42
2023-01-06T10:14:34.223Z,67.36
2023-01-06T10:16:42.619Z,67.51
2023-01-06T10:18:49.435Z,67.17
2023-01-06T10:20:58.279Z,67.36
2023-01-06T10:23:08.830Z,67.51
2023-01-06T10:25:16.149Z,67.38
2023-01-06T10:27:20.232Z,68.23
2023-01-06T10:29:25.316Z,67.70
2023-01-06T10:31:33.407Z,67.72
2023-01-06T10:33:41.090Z,67.11
2023-01-06T10:35:43.475Z,67.02
2023-01-06T10:37:48.814Z,66.93
2023-01-06T10:40:00.424Z,67.00
2023-01-06T10:42:23.640Z,66.52
2023-01-06T10:44:26.087Z,66.24
2023-01-06T10:46:35.212Z,66.03
2023-01-06T10:48:41.043Z,66.30
2023-01-06T10:50:43.505Z,66.02
2023-01-06T10:52:46.995Z,66.64
2023-01-06T10:54:52.537Z,65.97
2023-01-06T10:57:01.899Z,65.90
2023-01-06T10:59:08.393Z,65.16
2023-01-06T11:01:16.415Z,65.57
2023-01-06T11:03:32.848Z,64.97
2023-01-06T11:05:35.921Z,65.52
2023-01-06T11:07:38.540Z,65.62
2023-01-06T11:09:43.884Z,66.23
2023-01-06T11:11:49.456Z,66.15
2023-01-06T11:13:56.318Z,66.27
2023-01-06T11:16:02.268Z,65.45
2023-01-06T11:18:06.284Z,64.76
2023-01-06T11:20:29.288Z,64.40
2023-01-06T11:22:35.683Z,64.67
2023-01-06T11:24:52.060Z,64.42
2023-01-06T11:27:02.833Z,64.47
2023-01-06T11:29:23.083Z,64.09
2023-01-06T11:31:27.125Z,64.18
2023-01-06T11:33:31.848Z,63.52
2023-01-06T11:35:35.399Z,63.44
2023-01-06T11:37:40.928Z,63.41
2023-01-06T11:39:45.212Z,64.40
2023-01-06T11:41:52.123Z,64.26
2023-01-06T11:43:58.244Z,64.23
2023-01-06T11:46:07.103Z,63.39
2023-01-06T11:48:18.116Z,62.68
2023-01-06T11:50:21.395Z,63.41
2023-01-06T11:52:25.469Z,63.40
2023-01-06T11:54:32.196Z,62.44
2023-01-06T11:56:34.396Z,63.24
2023-01-06T11:58:41.377Z,63.29
2023-01-06T12:00:52.084Z,62.55
2023-01-06T12:03:07.743Z,62.62
2023-01-06T12:05:20.621Z,63.11
2023-01-06T12:07:34.536Z,62.62
2023-01-06T12:09:42.197Z,62.26
2023-01-06T12:11:52.027Z,62.79
2023-01-06T12:14:10.606Z,62.79
2023-01-06T12:16:24.005Z,63.09
2023-01-06T12:18:29.940Z,63.08
2023-01-06T12:20:36.729Z,62.64
2023-01-06T12:22:46.220Z,63.00
2023-01-06T12:24:50.319Z,62.77
2023-01-06T12:26:53.626Z,63.05
2023-01-06T12:28:58.165Z,62.78
2023-01-06T12:31:06.876Z,62.84
2023-01-06T12:33:16.018Z,63.29
2023-01-06T12:35:25.543Z,63.25
2023-01-06T12:37:31.916Z,63.36
2023-01-06T12:39:42.356Z,62.80
2023-01-06T12:41:53.819Z,63.15
2023-01-06T12:44:06.963Z,63.05
2023-01-06T12:46:16.675Z,63.39
2023-01-06T12:48:25.178Z,63.52
2023-01-06T12:50:31.063Z,64.32
2023-01-06T12:52:43.341Z,64.34
2023-01-06T12:54:52.972Z,64.74
2023-01-06T12:57:03.928Z,64.88
2023-01-06T12:59:12.771Z,64.87
2023-01-06T13:01:19.628Z,64.49
2023-01-06T13:03:26.384Z,64.52
2023-01-06T13:05:40.719Z,64.29
2023-01-06T13:07:47.707Z,63.99
2023-01-06T13:09:56.318Z,64.13
2023-01-06T13:12:04.880Z,63.99
2023-01-06T13:14:08.857Z,63.86
2023-01-06T13:16:17.318Z,64.12
2023-01-06T13:18:29.082Z,63.86
2023-01-06T13:20:42.060Z,63.26
2023-01-06T13:22:56.617Z,63.13
2023-01-06T13:25:05.007Z,62.74
2023-01-06T13:27:18.374Z,62.63
2023-01-06T13:29:26.774Z,63.02
2023-01-06T13:31:42.996Z,62.78
2023-01-06T13:33:50.560Z,63.18
2023-01-06T13:36:02.324Z,63.41
2023-01-06T13:38:07.997Z,63.88
2023-01-06T13:40:15.109Z,64.40
2023-01-06T13:42:26.238Z,63.66
2023-01-06T13:44:32.551Z,63.50
2023-01-06T13:46:35.874Z,63.42
2023-01-06T13:48:42.355Z,63.46
2023-01-06T13:50:46.311Z,63.12
2023-01-06T13:52:50.620Z,62.82
2023-01-06T13:54:53.578Z,62.68
2023-01-06T13:57:02.171Z,62.71
2023-01-06T13:59:10.633Z,62.57
2023-01-06T14:01:32.297Z,63.19
2023-01-06T14:03:35.812Z,62.88
2023-01-06T14:05:38.772Z,62.33
2023-01-06T14:07:49.228Z,62.60
2023-01-06T14:09:51.682Z,62.63
2023-01-06T14:11:54.873Z,62.74
2023-01-06T14:13:59.854Z,63.20
2023-01-06T14:16:06.310Z,62.88
2023-01-06T14:18:30.405Z,63.30
2023-01-06T14:20:36.177Z,63.61
2023-01-06T14:22:38.473Z,63.48
2023-01-06T14:24:48.094Z,63.25
2023-01-06T14:26:51.217Z,63.59
2023-01-06T14:28:53.518Z,64.39
2023-01-06T14:31:02.260Z,64.83
2023-01-06T14:33:25.174Z,64.31
2023-01-06T14:35:32.126Z,64.75
2023-01-06T14:37:44.196Z,64.40
2023-01-06T14:39:49.813Z,64.58
2023-01-06T14:41:56.446Z,64.82
2023-01-06T14:44:03.902Z,65.02
2023-01-06T14:46:15.356Z,64.58
2023-01-06T14:48:21.572Z,64.56
2023-01-06T14:50:34.808Z,64.93
2023-01-06T14:52:56.037Z,64.86
2023-01-06T14:54:59.675Z,65.18
2023-01-06T14:57:03.882Z,65.54
2023-01-06T14:59:11.753Z,65.65
2023-01-06T15:01:22.807Z,66.04
2023-01-06T15:03:28.096Z,66.08
2023-01-06T15:05:35.107Z,66.22
2023-01-06T15:07:37.393Z,67.17
2023-01-06T15:09:39.844Z,67.17
2023-01-06T15:11:43.131Z,67.56
2023-01-06T15:13:45.678Z,66.81
2023-01-06T15:15:56.508Z,67.61
2023-01-06T15:18:02.964Z,67.41
2023-01-06T15:20:12.994Z,67.78
2023-01-06T15:22:21.181Z,67.63
2023-01-06T15:24:28.248Z,67.74
2023-01-06T15:26:32.282Z,68.25
2023-01-06T15:28:35.959Z,68.33
2023-01-06T15:30:38.362Z,69.27
2023-01-06T15:32:41.625Z,69.58
2023-01-06T15:34:47.252Z,69.86
2023-01-06T15:36:52.812Z,70.08
2023-01-06T15:39:01.293Z,70.64
2023-01-06T15:41:06.120Z,70.71
2023-01-06T15:43:09.018Z,70.76
2023-01-06T15:45:25.559Z,70.89
2023-01-06T15:47:32.313Z,71.02
2023-01-06T15:49:37.914Z,72.14
2023-01-06T15:51:40.244Z,71.89
2023-01-06T15:53:43.632Z,72.24
2023-01-06T15:55:50.629Z,72.26
2023-01-06T15:57:59.294Z,72.84
2023-01-06T16:00:06.668Z,72.91
2023-01-06T16:02:18.836Z,72.82
2023-01-06T16:04:22.602Z,73.03
2023-01-06T16:06:29.485Z,73.51
2023-01-06T16:08:31.784Z,73.40
2023-01-06T16:10:37.441Z,73.54
2023-01-06T16:12:39.722Z,74.12
2023-01-06T16:14:45.725Z,74.38
2023-01-06T16:16:48.187Z,73.99
2023-01-06T16:18:53.552Z,74.21
2023-01-06T16:20:56.767Z,74.57
2023-01-06T16:22:59.124Z,74.42
2023-01-06T16:25:05.569Z,74.82
2023-01-06T16:27:07.856Z,74.84
2023-01-06T16:29:16.356Z,75.17
2023-01-06T16:31:29.648Z,75.20
2023-01-06T16:33:39.766Z,75.40
2023-01-06T16:35:42.065Z,75.85
2023-01-06T16:37:45.335Z,75.64
2023-01-06T16:39:47.720Z,75.65
2023-01-06T16:41:56.770Z,75.95
2023-01-06T16:44:04.544Z,76.41
2023-01-06T16:46:15.838Z,76.17
2023-01-06T16:48:18.490Z,76.11
2023-01-06T16:50:22.578Z,76.26
2023-01-06T16:52:26.278Z,76.66
2023-01-06T16:54:29.214Z,76.83
2023-01-06T16:56:31.584Z,76.56
2023-01-06T16:58:35.932Z,76.92
2023-01-06T17:00:40.671Z,76.71
2023-01-06T17:02:43.623Z,76.73
2023-01-06T17:04:47.553Z,76.88
2023-01-06T17:06:49.830Z,77.19
2023-01-06T17:08:54.844Z,77.12
2023-01-06T17:11:00.249Z,77.12
2023-01-06T17:13:08.065Z,76.79
2023-01-06T17:15:12.856Z,76.79
2023-01-06T17:17:22.549Z,77.04
2023-01-06T17:19:27.013Z,76.95
2023-01-06T17:21:30.981Z,76.72
2023-01-06T17:23:42.680Z,76.89
2023-01-06T17:25:48.924Z,77.27
2023-01-06T17:27:51.268Z,78.22
2023-01-06T17:29:54.980Z,79.33
2023-01-06T17:32:03.733Z,79.51
2023-01-06T17:34:12.280Z,79.31
2023-01-06T17:36:20.683Z,80.51
2023-01-06T17:38:25.169Z,80.37
2023-01-06T17:40:35.343Z,80.56
2023-01-06T17:42:37.819Z,80.64
2023-01-06T17:44:46.502Z,80.74
2023-01-06T17:46:48.993Z,80.91
2023-01-06T17:49:01.519Z,81.10
2023-01-06T17:51:03.966Z,81.31
2023-01-06T17:53:15.609Z,81.67
2023-01-06T17:55:27.233Z,81.93
2023-01-06T17:57:29.518Z,82.18
2023-01-06T17:59:31.763Z,81.98
2023-01-06T18:01:35.677Z,82.37
2023-01-06T18:03:41.266Z,82.20
2023-01-06T18:05:44.508Z,83.10
2023-01-06T18:07:47.079Z,83.08
2023-01-06T18:09:53.148Z,83.34
2023-01-06T18:12:00.320Z,83.46
2023-01-06T18:14:15.876Z,83.52
2023-01-06T18:16:28.225Z,84.05
2023-01-06T18:18:34.077Z,84.38
2023-01-06T18:20:36.399Z,84.71
2023-01-06T18:22:40.890Z,84.53
2023-01-06T18:24:44.106Z,85.32
2023-01-06T18:26:49.788Z,85.39
2023-01-06T18:28:53.320Z,85.27
2023-01-06T18:30:59.563Z,85.60
2023-01-06T18:33:02.218Z,85.50
2023-01-06T18:35:11.141Z,85.57
2023-01-06T18:37:13.563Z,85.87
2023-01-06T18:39:23.099Z,85.61
2023-01-06T18:41:25.458Z,85.37
2023-01-06T18:43:31.000Z,85.66
2023-01-06T18:45:36.745Z,85.54
2023-01-06T18:47:42.004Z,85.67
2023-01-06T18:49:44.847Z,85.58
2023-01-06T18:51:47.035Z,84.96
2023-01-06T18:53:51.804Z,84.81
2023-01-06T18:55:57.843Z,84.83
2023-01-06T18:58:08.030Z,84.38
2023-01-06T19:00:31.110Z,84.29
2023-01-06T19:02:39.541Z,84.17
2023-01-06T19:04:42.755Z,84.22
2023-01-06T19:06:50.611Z,83.95
2023-01-06T19:08:53.076Z,83.34
2023-01-06T19:10:55.336Z,83.43
2023-01-06T19:13:00.469Z,83.62
2023-01-06T19:15:08.960Z,83.02
2023-01-06T19:17:20.705Z,83.13
2023-01-06T19:19:26.908Z,82.93
2023-01-06T19:21:29.279Z,82.64
2023-01-06T19:23:32.952Z,82.42
2023-01-06T19:25:40.920Z,82.17
2023-01-06T19:27:47.180Z,81.85
2023-01-06T19:29:49.479Z,81.45
2023-01-06T19:31:57.144Z,81.28
2023-01-06T19:34:02.562Z,80.87
2023-01-06T19:36:05.599Z,80.60
2023-01-06T19:38:22.380Z,80.30
2023-01-06T19:40:28.839Z,79.90
2023-01-06T19:42:32.185Z,80.04
2023-01-06T19:44:39.046Z,80.30
2023-01-06T19:46:43.838Z,79.81
2023-01-06T19:48:46.199Z,79.53
2023-01-06T19:50:48.480Z,79.08
2023-01-06T19:52:58.569Z,78.85
2023-01-06T19:55:15.716Z,79.26
2023-01-06T19:57:27.701Z,78.88
2023-01-06T19:59:33.484Z,79.30
2023-01-06T20:01:36.717Z,79.04
2023-01-06T20:03:45.177Z,79.00
2023-01-06T20:05:47.501Z,79.38
2023-01-06T20:07:49.785Z,79.42
2023-01-06T20:09:52.050Z,78.80
2023-01-06T20:11:54.731Z,78.86
2023-01-06T20:13:56.986Z,79.15
2023-01-06T20:15:59.379Z,78.25
2023-01-06T20:18:01.642Z,78.73
2023-01-06T20:20:05.046Z,78.61
2023-01-06T20:22:07.358Z,78.29
2023-01-06T20:24:11.114Z,78.64
2023-01-06T20:26:13.374Z,78.47
2023-01-06T20:28:17.005Z,78.20
2023-01-06T20:30:19.472Z,77.92
2023-01-06T20:32:21.917Z,78.20
2023-01-06T20:34:24.178Z,77.94
2023-01-06T20:36:26.523Z,77.43
2023-01-06T20:38:28.756Z,77.25
2023-01-06T20:40:30.983Z,77.50
2023-01-06T20:42:33.500Z,77.59
2023-01-06T20:44:36.131Z,77.75
2023-01-06T20:46:38.583Z,78.52
2023-01-06T20:48:41.484Z,78.22
2023-01-06T20:50:43.846Z,77.91
2023-01-06T20:52:46.042Z,77.66
2023-01-06T20:54:48.317Z,78.54
2023-01-06T20:56:50.527Z,78.50
2023-01-06T20:58:52.769Z,78.43
2023-01-06T21:00:55.058Z,78.71
2023-01-06T21:02:57.489Z,78.77
2023-01-06T21:04:59.881Z,78.67
2023-01-06T21:07:02.164Z,78.96
2023-01-06T21:09:04.438Z,78.57
2023-01-06T21:11:06.708Z,78.35
2023-01-06T21:13:08.980Z,78.30
2023-01-06T21:15:13.034Z,78.01
2023-01-06T21:17:15.290Z,77.85
2023-01-06T21:19:18.054Z,77.99
2023-01-06T21:21:21.310Z,77.98
2023-01-06T21:23:23.776Z,78.10
2023-01-06T21:25:26.144Z,78.45
2023-01-06T21:27:28.506Z,78.21
2023-01-06T21:29:31.144Z,78.06
2023-01-06T21:31:33.625Z,78.63
2023-01-06T21:33:36.024Z,78.75
2023-01-06T21:35:38.364Z,78.02
2023-01-06T21:37:40.808Z,77.87
2023-01-06T21:39:43.031Z,77.60
2023-01-06T21:41:48.330Z,77.65
2023-01-06T21:43:50.803Z,77.46
2023-01-06T21:45:53.076Z,77.04
2023-01-06T21:47:55.652Z,76.82
2023-01-06T21:49:57.956Z,76.68
2023-01-06T21:52:02.870Z,76.45
2023-01-06T21:54:05.927Z,76.35
2023-01-06T21:56:09.354Z,76.68
2023-01-06T21:58:11.657Z,76.98
2023-01-06T22:00:15.269Z,76.91
2023-01-06T22:02:17.783Z,76.54
2023-01-06T22:04:20.203Z,76.44
2023-01-06T22:06:23.879Z,76.48
2023-01-06T22:08:26.184Z,76.59
2023-01-06T22:10:28.520Z,76.61
2023-01-06T22:12:31.538Z,76.28
2023-01-06T22:14:34.197Z,76.39
2023-01-06T22:16:38.931Z,76.36
2023-01-06T22:18:41.659Z,76.59
2023-01-06T22:20:44.582Z,76.68
2023-01-06T22:22:47.700Z,77.18
2023-01-06T22:24:52.278Z,76.48
2023-01-06T22:26:54.638Z,76.81
2023-01-06T22:28:57.095Z,76.79
2023-01-06T22:30:59.633Z,77.61
2023-01-06T22:33:02.047Z,77.32
2023-01-06T22:35:07.701Z,77.28
2023-01-06T22:37:10.056Z,77.64
2023-01-06T22:39:12.420Z,77.35
2023-01-06T22:41:15.448Z,77.48
2023-01-06T22:43:18.718Z,77.68
2023-01-06T22:45:21.135Z,77.26
2023-01-06T22:47:23.332Z,77.53
2023-01-06T22:49:25.597Z,77.40
2023-01-06T22:51:28.874Z,77.02
2023-01-06T22:53:32.670Z,76.91
2023-01-06T22:55:35.093Z,76.76
2023-01-06T22:57:37.305Z,77.38
2023-01-06T22:59:39.551Z,77.13
2023-01-06T23:01:42.154Z,76.60
2023-01-06T23:03:44.673Z,76.56
2023-01-06T23:05:56.037Z,76.88
2023-01-06T23:07:58.239Z,76.96
2023-01-06T23:10:00.353Z,77.12
2023-01-06T23:12:02.824Z,77.07
2023-01-06T23:14:05.018Z,77.14
2023-01-06T23:16:10.211Z,76.50
2023-01-06T23:18:12.588Z,76.41
2023-01-06T23:20:14.849Z,75.96
2023-01-06T23:22:17.142Z,76.37
2023-01-06T23:24:19.417Z,75.86
2023-01-06T23:26:27.343Z,75.42
2023-01-06T23:28:29.746Z,75.44
2023-01-06T23:30:34.784Z,75.63
2023-01-06T23:32:37.175Z,75.27
2023-01-06T23:34:39.489Z,75.75
2023-01-06T23:36:42.804Z,75.15
2023-01-06T23:38:45.635Z,75.23
2023-01-06T23:40:47.401Z,75.49
2023-01-06T23:42:49.577Z,75.35
2023-01-06T23:45:12.021Z,75.67
2023-01-06T23:47:19.647Z,75.64
2023-01-06T23:49:22.047Z,75.11
2023-01-06T23:51:24.900Z,75.30
2023-01-06T23:53:29.308Z,75.24
2023-01-06T23:55:31.522Z,75.04
2023-01-06T23:57:34.557Z,74.92
2023-01-06T23:59:36.757Z,74.73
